Halfway's Hourly Summary for Friday, May 11, 2018
Hour Temp
(f)
RH
(%)
Solar Rad.
(MJ/m2)
Rainfall
(in)
Wind
(mph)
5/11/2018 12:00 AM 78 28 0 0 19.75
5/11/2018 1:00 AM 75 36 0 0 20.87
5/11/2018 2:00 AM 72 40 0 0 20.33
5/11/2018 3:00 AM 70 43 0 0 18.12
5/11/2018 4:00 AM 68 45 0 0 16.41
5/11/2018 5:00 AM 66 48 0 0 14.79
5/11/2018 6:00 AM 65 51 0 0 13.61
5/11/2018 7:00 AM 63 55 0.01 0 12.35
5/11/2018 8:00 AM 63 56 0.31 0 10.58
5/11/2018 9:00 AM 67 49 1.09 0 14.11
5/11/2018 10:00 AM 72 41 1.61 0 18.23
5/11/2018 11:00 AM 77 35 2.07 0 17.35
5/11/2018 12:00 PM 81 24 2.44 0 15.16
5/11/2018 1:00 PM 87 17 3.07 0 11.67
5/11/2018 2:00 PM 91 12 3.77 0 12.3
5/11/2018 3:00 PM 94 11 3.46 0 15.58
5/11/2018 4:00 PM 97 7 2.87 0 17.28
5/11/2018 5:00 PM 97 5 1.85 0 20.58
5/11/2018 6:00 PM 97 5 1.69 0 23.49
5/11/2018 7:00 PM 95 5 0.78 0 21.92
5/11/2018 8:00 PM 93 6 0.41 0 17.24
5/11/2018 9:00 PM 88 7 0.06 0 12.09
5/11/2018 10:00 PM 78 11 0 0 6.46
5/11/2018 11:00 PM 80 14 0 0 14.38
Data Summary 79 27 25.49 0.00 16.03